createdAt,value
2023-10-26T05:01:04.706Z,13.32
2023-10-26T05:04:19.103Z,13.45
2023-10-26T05:07:35.161Z,13.58
2023-10-26T05:10:52.870Z,13.95
2023-10-26T05:14:06.181Z,14.03
2023-10-26T05:17:11.132Z,14.08
2023-10-26T05:20:17.368Z,14.10
2023-10-26T05:23:32.472Z,14.05
2023-10-26T05:26:48.518Z,14.14
2023-10-26T05:29:54.608Z,14.11
2023-10-26T05:33:15.491Z,13.89
2023-10-26T05:36:36.313Z,14.09
2023-10-26T05:40:38.691Z,14.26
2023-10-26T05:44:06.582Z,14.17
2023-10-26T05:47:38.591Z,14.34
2023-10-26T05:51:06.192Z,14.34
2023-10-26T05:54:31.882Z,14.49
2023-10-26T05:57:46.645Z,14.71
2023-10-26T06:00:52.555Z,14.68
2023-10-26T06:17:06.428Z,15.11
2023-10-26T06:20:38.351Z,15.15
2023-10-26T06:24:02.016Z,15.56
2023-10-26T06:27:17.287Z,15.41
2023-10-26T06:30:33.353Z,15.41
2023-10-26T06:34:12.022Z,15.40
2023-10-26T06:37:39.411Z,15.39
2023-10-26T06:41:09.126Z,15.56
2023-10-26T06:44:36.348Z,15.25
2023-10-26T06:48:19.798Z,15.34
2023-10-26T06:53:00.067Z,15.35
2023-10-26T07:02:16.437Z,15.57
2023-10-26T07:06:10.605Z,15.59
2023-10-26T07:09:41.115Z,15.59
2023-10-26T07:13:23.279Z,15.50
2023-10-26T07:16:42.984Z,15.67
2023-10-26T07:19:59.461Z,15.21
2023-10-26T07:33:34.582Z,15.24
2023-10-26T07:36:45.670Z,15.24
2023-10-26T07:40:29.384Z,15.50
2023-10-26T07:43:35.752Z,15.35
2023-10-26T07:46:57.165Z,15.39
2023-10-26T07:50:18.811Z,15.27
2023-10-26T07:53:30.616Z,15.34
2023-10-26T07:56:55.531Z,15.36
2023-10-26T09:17:02.562Z,17.02
2023-10-26T09:20:26.732Z,17.22
2023-10-26T09:24:48.629Z,17.09
2023-10-26T09:28:19.774Z,17.58
2023-10-26T09:32:02.932Z,17.74
2023-10-26T09:42:06.567Z,18.05
2023-10-26T09:46:31.965Z,18.26
2023-10-26T09:50:07.139Z,18.26
2023-10-26T09:53:25.919Z,17.89
2023-10-26T09:57:00.938Z,17.98
2023-10-26T10:00:23.574Z,18.26
2023-10-26T10:04:03.482Z,18.47
2023-10-26T10:07:57.514Z,18.41
2023-10-26T10:11:40.199Z,18.52
2023-10-26T10:15:40.343Z,18.42
2023-10-26T10:39:38.672Z,18.58
2023-10-26T10:43:11.316Z,18.68
2023-10-26T10:46:30.741Z,18.65
2023-10-26T10:49:49.323Z,18.46
2023-10-26T10:53:10.137Z,18.52
2023-10-26T10:56:25.733Z,18.52
2023-10-26T10:59:36.385Z,18.35
2023-10-26T11:03:09.626Z,18.57
2023-10-26T11:06:24.202Z,18.64
2023-10-26T11:09:49.420Z,18.85
2023-10-26T11:13:03.697Z,18.93
2023-10-26T11:16:24.505Z,19.14
2023-10-26T11:19:38.624Z,19.39
2023-10-26T11:22:48.845Z,19.46
2023-10-26T11:51:09.864Z,20.32
2023-10-26T11:54:27.041Z,20.06
2023-10-26T11:57:43.629Z,20.62
2023-10-26T12:00:53.026Z,20.81
2023-10-26T12:04:25.668Z,20.75
2023-10-26T12:08:01.138Z,21.09
2023-10-26T12:11:11.037Z,20.83
2023-10-26T12:14:15.862Z,20.80
2023-10-26T12:17:32.545Z,21.18
2023-10-26T12:20:44.070Z,20.80
2023-10-26T12:23:55.168Z,20.35
2023-10-26T12:27:06.148Z,20.35
2023-10-26T12:30:13.045Z,20.57
2023-10-26T12:33:22.242Z,20.50
2023-10-26T12:36:33.907Z,20.40
2023-10-26T12:39:39.242Z,19.96
2023-10-26T12:42:55.175Z,19.84
2023-10-26T12:46:06.095Z,19.82
2023-10-26T12:49:25.757Z,20.01
2023-10-26T12:52:49.554Z,19.89
2023-10-26T12:56:25.964Z,20.10
2023-10-26T12:59:42.759Z,19.85
2023-10-26T13:02:47.478Z,20.14
2023-10-26T13:05:57.096Z,20.30
2023-10-26T13:09:03.552Z,20.30
2023-10-26T13:12:18.198Z,20.09
2023-10-26T13:15:34.603Z,20.07
2023-10-26T13:18:40.235Z,20.28
2023-10-26T13:21:57.955Z,20.48
2023-10-26T13:25:04.259Z,20.25
2023-10-26T13:28:08.318Z,20.51
2023-10-26T13:31:32.845Z,20.33
2023-10-26T13:34:51.083Z,20.21
2023-10-26T13:38:17.019Z,20.33
2023-10-26T13:41:34.976Z,20.17
2023-10-26T13:44:53.717Z,20.25
2023-10-26T13:48:18.731Z,19.88
2023-10-26T13:51:48.995Z,20.03
2023-10-26T13:54:53.881Z,20.10
2023-10-26T13:58:13.485Z,19.85
2023-10-26T14:01:34.722Z,19.69
2023-10-26T14:04:50.895Z,19.44
2023-10-26T14:08:13.603Z,19.35
2023-10-26T14:11:30.406Z,19.30
2023-10-26T14:14:59.281Z,19.36
2023-10-26T14:18:21.428Z,19.51
2023-10-26T14:21:45.938Z,19.32
2023-10-26T14:25:04.551Z,19.33
2023-10-26T14:28:07.833Z,19.06
2023-10-26T14:31:12.108Z,19.27
2023-10-26T14:34:26.764Z,19.04
2023-10-26T14:37:31.129Z,18.84
2023-10-26T14:40:47.413Z,18.99
2023-10-26T14:43:56.769Z,18.91
2023-10-26T14:47:02.220Z,18.86
2023-10-26T14:50:11.536Z,19.00
2023-10-26T14:53:38.702Z,19.12
2023-10-26T14:56:51.765Z,19.07
2023-10-26T14:59:57.621Z,18.94
2023-10-26T15:03:13.893Z,18.91
2023-10-26T15:06:38.751Z,18.83
2023-10-26T15:10:19.985Z,18.89
2023-10-26T15:13:22.538Z,18.78
2023-10-26T15:16:27.966Z,18.57
2023-10-26T15:19:36.611Z,18.57
2023-10-26T15:22:43.038Z,18.50
2023-10-26T15:25:47.595Z,18.56
2023-10-26T15:29:09.772Z,18.54
2023-10-26T15:32:25.937Z,18.53
2023-10-26T15:35:44.995Z,18.45
2023-10-26T15:38:49.419Z,18.35
2023-10-26T15:41:57.124Z,18.28
2023-10-26T15:45:15.910Z,18.17
2023-10-26T15:49:30.973Z,18.12
2023-10-26T15:52:05.435Z,18.00
2023-10-26T15:55:19.375Z,17.97
2023-10-26T15:58:34.758Z,18.01
2023-10-26T16:01:58.630Z,17.99
2023-10-26T16:05:32.459Z,18.06
2023-10-26T16:09:24.467Z,18.00
2023-10-26T16:12:57.790Z,17.92
2023-10-26T16:16:19.147Z,17.79
2023-10-26T16:19:32.951Z,17.72
2023-10-26T16:22:46.828Z,17.64
2023-10-26T16:26:03.557Z,17.56
2023-10-26T16:29:23.514Z,17.52
2023-10-26T16:32:53.618Z,17.52
2023-10-26T16:35:58.403Z,17.30
2023-10-26T16:39:01.831Z,17.37
2023-10-26T16:42:11.123Z,17.29
2023-10-26T16:45:16.014Z,16.98
2023-10-26T16:48:21.929Z,17.08
2023-10-26T16:51:29.443Z,17.37
2023-10-26T16:54:46.644Z,17.40
2023-10-26T16:58:04.277Z,17.32
2023-10-26T17:01:20.536Z,17.33
2023-10-26T17:04:27.969Z,17.36
2023-10-26T17:07:32.731Z,17.32
2023-10-26T17:10:54.693Z,17.29
2023-10-26T17:14:04.368Z,17.13
2023-10-26T17:17:20.605Z,17.23
2023-10-26T17:20:25.336Z,17.32
2023-10-26T17:23:36.007Z,17.31
2023-10-26T17:26:47.525Z,17.33
2023-10-26T17:29:51.493Z,17.29
2023-10-26T17:32:54.776Z,17.30
2023-10-26T17:36:10.495Z,17.27
2023-10-26T17:39:33.385Z,17.28
2023-10-26T17:42:56.569Z,17.26
2023-10-26T17:46:17.730Z,17.26
2023-10-26T17:49:43.457Z,17.22
2023-10-26T17:52:51.750Z,17.09
2023-10-26T17:56:03.235Z,16.98
2023-10-26T17:59:06.406Z,17.01
2023-10-26T18:02:26.129Z,17.02
2023-10-26T18:05:48.990Z,16.96
2023-10-26T18:09:10.696Z,16.93
2023-10-26T18:12:33.349Z,16.91
2023-10-26T18:15:42.899Z,16.89
2023-10-26T18:19:07.400Z,16.63
2023-10-26T18:22:29.955Z,16.87
2023-10-26T18:25:46.775Z,16.78
2023-10-26T18:29:10.268Z,16.62
2023-10-26T18:32:27.707Z,16.75
2023-10-26T18:35:32.909Z,16.40
2023-10-26T18:38:39.943Z,16.44
2023-10-26T18:41:54.098Z,16.41
2023-10-26T18:45:11.348Z,16.28
2023-10-26T18:48:32.508Z,16.01
2023-10-26T18:51:52.224Z,15.63
2023-10-26T18:55:20.390Z,15.99
2023-10-26T18:58:43.424Z,15.91
2023-10-26T19:02:09.251Z,16.00
2023-10-26T19:05:15.752Z,15.95
2023-10-26T19:08:27.449Z,15.82
2023-10-26T19:11:31.359Z,15.79
2023-10-26T19:14:48.872Z,15.71
2023-10-26T19:18:00.814Z,15.76
2023-10-26T19:21:13.834Z,15.76
2023-10-26T19:24:17.309Z,15.63
2023-10-26T19:27:33.406Z,15.62
2023-10-26T19:30:36.753Z,15.75
2023-10-26T19:33:46.849Z,15.69
2023-10-26T19:36:54.635Z,15.35
2023-10-26T19:40:09.311Z,15.53
2023-10-26T19:43:33.074Z,15.30
2023-10-26T19:46:53.339Z,15.02
2023-10-26T19:50:20.280Z,14.95
2023-10-26T19:53:42.959Z,15.02
2023-10-26T19:57:04.985Z,15.10
2023-10-26T20:00:18.002Z,15.08
2023-10-26T20:03:27.848Z,15.26
2023-10-26T20:06:47.265Z,15.23
2023-10-26T20:10:17.134Z,15.12
2023-10-26T20:13:46.207Z,15.11
2023-10-26T20:17:10.032Z,15.34
2023-10-26T20:20:34.134Z,15.36
2023-10-26T20:23:56.827Z,15.29
2023-10-26T20:27:17.015Z,15.21
2023-10-26T20:30:39.134Z,14.99
2023-10-26T20:34:00.367Z,14.95
2023-10-26T20:37:11.994Z,14.64
2023-10-26T20:40:17.262Z,14.84
2023-10-26T20:43:38.063Z,14.95
2023-10-26T20:46:49.507Z,14.88
2023-10-26T20:49:59.677Z,14.93
2023-10-26T20:53:22.901Z,14.97
2023-10-26T20:56:45.899Z,14.98
2023-10-26T21:00:02.401Z,14.99
2023-10-26T21:03:30.992Z,14.46
2023-10-26T21:06:55.895Z,14.48
2023-10-26T21:10:22.983Z,14.53
2023-10-26T21:13:39.626Z,14.78
2023-10-26T21:16:49.946Z,14.84
2023-10-26T21:20:09.362Z,15.02
2023-10-26T21:23:34.909Z,14.96
2023-10-26T21:26:38.630Z,14.94
2023-10-26T21:29:45.652Z,14.83
2023-10-26T21:32:52.683Z,14.82
2023-10-26T21:35:58.517Z,14.72
2023-10-26T21:39:02.166Z,14.68
2023-10-26T21:42:12.652Z,14.75
2023-10-26T21:45:16.702Z,14.75
2023-10-26T21:48:23.321Z,14.63
2023-10-26T21:51:32.466Z,14.45
2023-10-26T21:54:46.315Z,14.40
2023-10-26T21:57:50.076Z,14.61
2023-10-26T22:00:54.614Z,14.70
2023-10-26T22:04:20.850Z,14.68
2023-10-26T22:07:37.770Z,14.69
2023-10-26T22:11:04.688Z,14.64
2023-10-26T22:14:26.639Z,14.64
2023-10-26T22:17:48.760Z,14.66
2023-10-26T22:21:13.667Z,14.67
2023-10-26T22:24:17.774Z,14.59
2023-10-26T22:27:21.898Z,14.67
2023-10-26T22:30:32.762Z,14.60
2023-10-26T22:33:58.754Z,14.69
2023-10-26T22:37:05.559Z,14.63
2023-10-26T22:40:13.748Z,14.64
2023-10-26T22:43:25.000Z,14.61
2023-10-26T22:46:46.735Z,14.56
2023-10-26T22:49:56.720Z,14.59
2023-10-26T22:53:02.376Z,14.60
2023-10-26T22:56:05.771Z,14.61
2023-10-26T22:59:22.172Z,14.50
2023-10-26T23:02:25.709Z,14.65
2023-10-26T23:05:32.415Z,14.41
2023-10-26T23:08:40.636Z,14.42
2023-10-26T23:12:03.752Z,14.68
2023-10-26T23:15:23.719Z,14.58
2023-10-26T23:18:27.202Z,14.67
2023-10-26T23:21:32.516Z,14.75
2023-10-26T23:24:46.510Z,14.65
2023-10-26T23:27:56.286Z,14.64
2023-10-26T23:31:16.580Z,14.79
2023-10-26T23:34:32.851Z,14.52
2023-10-26T23:38:02.549Z,14.57
2023-10-26T23:41:17.421Z,14.77
2023-10-26T23:44:21.554Z,14.85
2023-10-26T23:47:32.207Z,14.92
2023-10-26T23:50:42.078Z,14.99
2023-10-26T23:54:02.592Z,15.30
2023-10-26T23:57:15.745Z,15.34
